HomeShort term forecast

Short term forecast

Graphical weather forecast for the next 48 hours for Montreal:
Short term forecast
This weather forecast is automatically refreshed every 3 hours.

Hourly Experimental Forecast for the next 48 hours ®

Overall summary: Partly cloudy throughout the day.

 Date & Hour   Temp   Feel   Baro   Hum   Speed & Bearing   Wind Gust   Precip.%   Precip.   Visibility   Cloud cover   Conditions 
 03/02/2023 - 09:00  -25.5°C  -37.9°C  1020.1 hPa  52%  22.2 km/h   39.2 km/h  0%  --  16.1km  21%  Clear 
 03/02/2023 - 10:00  -25.7°C  -38.5°C  1020.6 hPa  49%  23.3 km/h   38.0 km/h  0%  --  16.1km  50%  Partly Cloudy 
 03/02/2023 - 11:00  -25.8°C  -38.8°C  1020.8 hPa  54%  24.1 km/h   36.7 km/h  0%  --  16.1km  54%  Partly Cloudy 
 03/02/2023 - 12:00  -26.0°C  -39.4°C  1020.4 hPa  58%  25.3 km/h   37.6 km/h  0%  --  16.1km  68%  Mostly Cloudy 
 03/02/2023 - 13:00  -26.1°C  -39.7°C  1020.3 hPa  60%  26.4 km/h   39.5 km/h  0%  --  16.1km  70%  Mostly Cloudy 
 03/02/2023 - 14:00  -26.0°C  -39.8°C  1021.1 hPa  61%  27.3 km/h   43.0 km/h  0%  --  16.1km  70%  Mostly Cloudy 
 03/02/2023 - 15:00  -25.7°C  -39.1°C  1022.1 hPa  61%  26.0 km/h   43.7 km/h  0%  --  16.1km  68%  Mostly Cloudy 
 03/02/2023 - 16:00  -25.5°C  -38.4°C  1023.3 hPa  60%  23.7 km/h   44.4 km/h  0%  --  16.1km  57%  Partly Cloudy 
 03/02/2023 - 17:00  -26.4°C  -38.8°C  1024.3 hPa  59%  21.1 km/h   42.4 km/h  0%  --  16.1km  60%  Mostly Cloudy 
 03/02/2023 - 18:00  -27.2°C  -39.3°C  1025.5 hPa  57%  19.4 km/h   44.8 km/h  0%  --  16.1km  61%  Mostly Cloudy 
 03/02/2023 - 19:00  -27.6°C  -39.7°C  1026.2 hPa  55%  19.0 km/h   43.4 km/h  0%  --  16.1km  39%  Partly Cloudy 
 03/02/2023 - 20:00  -27.8°C  -40.2°C  1026.6 hPa  53%  19.8 km/h   43.9 km/h  0%  --  16.1km  53%  Partly Cloudy 
 03/02/2023 - 21:00  -28.4°C  -41.0°C  1027.3 hPa  50%  20.1 km/h   43.0 km/h  0%  --  16.1km  37%  Partly Cloudy 
 03/02/2023 - 22:00  -27.9°C  -40.8°C  1028.0 hPa  48%  21.2 km/h   42.5 km/h  0%  --  16.1km  42%  Partly Cloudy 
 03/02/2023 - 23:00  -28.1°C  -41.0°C  1028.8 hPa  47%  21.2 km/h   43.4 km/h  0%  --  16.1km  43%  Partly Cloudy 
 04/02/2023 - 00:00  -28.3°C  -41.3°C  1029.2 hPa  47%  21.4 km/h   43.5 km/h  0%  --  16.1km  27%  Clear 
 04/02/2023 - 01:00  -28.7°C  -41.7°C  1029.8 hPa  49%  20.8 km/h   42.7 km/h  0%  --  16.1km  19%  Clear 
 04/02/2023 - 02:00  -28.9°C  -41.9°C  1030.7 hPa  50%  20.8 km/h   43.5 km/h  0%  --  16.1km  7%  Clear 
 04/02/2023 - 03:00  -29.1°C  -42.2°C  1031.5 hPa  52%  21.1 km/h   44.8 km/h  0%  --  16.1km  4%  Clear 
 04/02/2023 - 04:00  -29.0°C  -42.2°C  1032.2 hPa  53%  21.1 km/h   45.5 km/h  0%  --  16.1km  2%  Clear 
 04/02/2023 - 05:00  -28.8°C  -41.7°C  1032.9 hPa  54%  20.6 km/h   45.5 km/h  0%  --  16.1km  2%  Clear 
 04/02/2023 - 06:00  -28.8°C  -41.4°C  1033.5 hPa  56%  19.7 km/h   44.8 km/h  0%  --  16.1km  2%  Clear 
 04/02/2023 - 07:00  -28.7°C  -41.1°C  1034.2 hPa  61%  19.3 km/h   45.3 km/h  0%  --  16.1km  3%  Clear 
 04/02/2023 - 08:00  -28.4°C  -40.8°C  1034.7 hPa  66%  19.4 km/h   44.4 km/h  0%  --  16.1km  2%  Clear 
 04/02/2023 - 09:00  -27.7°C  -40.1°C  1035.0 hPa  68%  20.0 km/h   42.8 km/h  0%  --  16.1km  33%  Partly Cloudy 
 04/02/2023 - 10:00  -26.4°C  -38.6°C  1035.0 hPa  69%  20.2 km/h   39.0 km/h  0%  --  16.1km  38%  Partly Cloudy 
 04/02/2023 - 11:00  -25.4°C  -37.3°C  1034.6 hPa  69%  20.0 km/h   35.8 km/h  0%  --  16.1km  49%  Partly Cloudy 
 04/02/2023 - 12:00  -24.1°C  -35.4°C  1033.8 hPa  69%  19.1 km/h   33.5 km/h  0%  --  16.1km  60%  Mostly Cloudy 
 04/02/2023 - 13:00  -22.7°C  -32.9°C  1033.0 hPa  68%  16.5 km/h   27.1 km/h  0%  --  16.1km  67%  Mostly Cloudy 
 04/02/2023 - 14:00  -21.6°C  -30.7°C  1032.0 hPa  69%  14.2 km/h   25.7 km/h  0%  --  16.1km  81%  Mostly Cloudy 
 04/02/2023 - 15:00  -20.7°C  -28.6°C  1031.3 hPa  71%  11.4 km/h   23.9 km/h  0%  --  16.1km  84%  Mostly Cloudy 
 04/02/2023 - 16:00  -19.9°C  -26.4°C  1030.2 hPa  72%  8.7 km/h   21.3 km/h  5%  0.01 mm/h  16.1km  88%  Overcast 
 04/02/2023 - 17:00  -19.6°C  -25.4°C  1029.6 hPa  73%  7.4 km/h   15.2 km/h  6%  0.03 mm/h  16.1km  89%  Overcast 
 04/02/2023 - 18:00  -19.8°C  -25.9°C  1029.2 hPa  76%  7.9 km/h   13.1 km/h  5%  0.03 mm/h  16.1km  91%  Overcast 
 04/02/2023 - 19:00  -20.2°C  -26.9°C  1028.6 hPa  75%  8.9 km/h   15.0 km/h  6%  0.05 mm/h  16.1km  94%  Overcast 
 04/02/2023 - 20:00  -19.9°C  -26.3°C  1027.6 hPa  75%  8.4 km/h   11.9 km/h  5%  0.03 mm/h  16.1km  94%  Overcast 
 04/02/2023 - 21:00  -18.4°C  -24.4°C  1026.5 hPa  79%  8.1 km/h   19.6 km/h  4%  0.01 mm/h  13.1km  93%  Overcast 
 04/02/2023 - 22:00  -16.9°C  -22.9°C  1025.5 hPa  82%  8.7 km/h   21.3 km/h  3%  0.01 mm/h  10.1km  93%  Overcast 
 04/02/2023 - 23:00  -15.5°C  -22.2°C  1024.6 hPa  83%  11.0 km/h   23.7 km/h  4%  0.03 mm/h  10.5km  94%  Overcast 
 05/02/2023 - 00:00  -14.5°C  -21.8°C  1023.4 hPa  83%  13.3 km/h   26.8 km/h  3%  0.04 mm/h  12.9km  96%  Overcast 
 05/02/2023 - 01:00  -13.8°C  -21.3°C  1022.3 hPa  85%  14.5 km/h   28.0 km/h  4%  0.05 mm/h  13.1km  98%  Overcast 
 05/02/2023 - 02:00  -13.0°C  -20.5°C  1021.1 hPa  87%  15.2 km/h   29.0 km/h  6%  0.11 mm/h  12.7km  99%  Overcast 
 05/02/2023 - 03:00  -12.4°C  -19.8°C  1019.8 hPa  88%  15.7 km/h   29.9 km/h  7%  0.19 mm/h  12.8km  100%  Overcast 
 05/02/2023 - 04:00  -11.9°C  -19.2°C  1018.7 hPa  90%  15.7 km/h   29.2 km/h  7%  0.28 mm/h  11.3km  100%  Overcast 
 05/02/2023 - 05:00  -11.5°C  -18.6°C  1018.0 hPa  93%  15.5 km/h   28.1 km/h  7%  0.26 mm/h  9.5km  100%  Overcast 
 05/02/2023 - 06:00  -10.9°C  -17.9°C  1017.1 hPa  93%  15.2 km/h   28.6 km/h  7%  0.24 mm/h  9.7km  99%  Overcast 
 05/02/2023 - 07:00  -9.3°C  -15.7°C  1015.7 hPa  95%  14.4 km/h   29.3 km/h  5%  0.12 mm/h  16.1km  99%  Overcast 
 05/02/2023 - 08:00  -8.6°C  -14.7°C  1015.0 hPa  98%  13.5 km/h   27.1 km/h  4%  0.05 mm/h  16.1km  100%  Overcast 

 

Past weather and reports

Past weatherFind in this section the past weather conditions, weather archive, graphics, reports and statistics.

Current conditions

Current weather condition for MontrealAll you need to know about the current weather conditions for Montreal. Weather data is updated every 10 minutes.

Weather forecast

Current Montreal weatherSince 2004, celinium.com website has provided accurate weather forecast for Montreal's island.